General Aviation Weather

Text Reports

Enter one or more of the following location identifiers separated by a space:

Zip Code, Four-Character ICAO or Three-Character IATA airport codes.

METAR - Aviation Routine Weather Report
PAIK - Kiana, Alaska
Updated at 10:01 PM GMT op 09 februari 2016 (1:01 PM AKST):
METAR PAIK 092201Z AUTO 07004KT 10SM CLR M13/M16 A3018 RMK AO2 SLP266 T11281161 FZRANO
TAF - Terminal Area Forecast
PAIK - Kiana, Alaska
Updated at 10:01 PM GMT op 09 februari 2016 (1:01 PM AKST):
No TAF is currently available for this location.
Decoded:
No decoded TAF is available.
PIREP - Pilot Weather Report
PAIK - Kiana, Alaska
Updated at 10:01 PM GMT op 09 februari 2016 (1:01 PM AKST):
No PIREP is currently available for this location.
AIRMET - Airmens Meteorological Information
PAIK - Kiana, Alaska
Updated at 10:01 PM GMT op 09 februari 2016 (1:01 PM AKST):
No AIRMET is currently available for this location.
SIGMET - Significant Meteorological Information
PAIK - Kiana, Alaska
Updated at 10:01 PM GMT op 09 februari 2016 (1:01 PM AKST):
No SIGMET is currently available for this location.
NOTAM - Notice to Airmen
PAIK - Kiana, Alaska
Updated at 10:01 PM GMT op 09 februari 2016 (1:01 PM AKST):
No NOTAM is currently available for this location.
Forecast Area
PAIK - Kiana, Alaska
Updated at 10:01 PM GMT op 09 februari 2016 (1:01 PM AKST):
No NOTAM is currently available for this location.
Aviation Weather Maps